Latest Weather Observations for Wyndham Airport

IDW60801

Issued at 5:02 pm WST Saturday 29 August 2015 (issued every 30 minutes, with the page automatically refreshed every 10 minutes)

About weather observations | Map of weather stations | Latest weather observations for WA | Other Formats
Station Details ID: 001006 Name: WYNDHAM AERO Lat: -15.51 Lon: 128.15 Height: 3.8 m
Data from the previous 72 hours. | See also: Recent months at Wyndham Airport
Date/Time
WST
Temp
°C
App
Temp
°C
Dew
Point
Rel
Hum
%
Delta-T
°C
Wind Press
QNH
hPa
Press
MSL
hPa
Rain
since 9 am
mm
Dir
 
Spd
km/h
Gust
km/h
Spd
kts
Gust
kts
29/05:00pm 32.7 31.2 14.3 32 11.2 ENE 15 20 8 11 1012.2 1012.2 0.0
29/04:30pm 33.4 32.4 14.5 32 11.6 ENE 13 19 7 10 1012.1 1012.1 0.0
29/04:00pm 34.2 33.2 14.7 31 12.1 E 13 20 7 11 1011.9 1011.9 0.0
29/03:30pm 34.5 33.2 14.9 31 12.2 E 15 22 8 12 1011.9 1011.9 0.0
29/03:00pm 33.6 33.9 15.1 33 11.5 ENE 7 17 4 9 1012.1 1012.1 0.0
29/02:30pm 34.6 33.0 15.0 31 12.2 E 17 26 9 14 1012.3 1012.3 0.0
29/02:00pm 34.4 34.2 14.8 30 12.1 ESE 9 20 5 11 1012.6 1012.6 0.0
29/01:30pm 34.4 34.4 15.3 31 11.9 NE 9 20 5 11 1013.0 1013.0 0.0
29/01:00pm 33.9 34.0 15.4 33 11.5 NE 9 17 5 9 1013.6 1013.6 0.0
29/12:30pm 32.9 33.3 15.4 35 10.9 ENE 7 17 4 9 1014.0 1014.0 0.0
29/12:00pm 31.9 31.4 15.0 36 10.4 ENE 11 19 6 10 1014.7 1014.7 0.0
29/11:30am 31.7 31.7 15.2 36 10.2 E 9 19 5 10 1015.4 1015.4 0.0
29/11:00am 31.0 29.8 15.0 38 9.8 E 15 24 8 13 1016.0 1016.0 0.0
29/10:30am 30.8 29.3 15.2 38 9.6 ENE 17 26 9 14 1016.5 1016.5 0.0
29/10:00am 31.2 30.2 15.6 39 9.7 E 15 28 8 15 1017.0 1017.0 0.0
29/09:30am 30.4 28.7 15.7 41 9.1 E 19 28 10 15 1017.4 1017.4 0.0
29/09:00am 30.0 28.7 16.8 45 8.3 E 19 26 10 14 1017.6 1017.6 0.0
29/08:30am 29.0 27.4 16.5 46 7.8 E 20 28 11 15 1017.6 1017.6 0.0
29/08:00am 28.1 26.6 16.7 50 7.1 E 20 28 11 15 1017.5 1017.5 0.0
29/07:30am 27.3 25.1 16.9 53 6.5 E 24 30 13 16 1017.2 1017.2 0.0
29/07:00am 26.6 23.6 16.8 55 6.1 E 28 32 15 17 1016.8 1016.8 0.0
29/06:30am 26.0 24.8 17.4 59 5.4 E 20 28 11 15 1016.5 1016.5 0.0
29/06:00am 25.5 24.5 17.9 63 4.8 ENE 20 24 11 13 1016.1 1016.1 0.0
29/05:30am 25.6 25.4 18.5 65 4.5 ENE 17 24 9 13 1015.7 1015.7 0.0
29/05:00am 26.1 26.4 18.8 64 4.7 ENE 15 19 8 10 1015.0 1015.0 0.0
29/04:30am 25.7 26.6 18.4 64 4.6 ESE 11 15 6 8 1014.5 1014.5 0.0
29/04:00am 26.8 28.4 19.2 63 4.9 S 9 13 5 7 1014.2 1014.2 0.0
29/03:30am 26.3 28.9 18.4 61 5.0 E 2 9 1 5 1013.9 1013.9 0.0
29/03:00am 26.9 27.9 18.7 60 5.2 W 11 15 6 8 1013.7 1013.7 0.0
29/02:30am 26.7 27.6 18.3 60 5.3 WNW 11 15 6 8 1013.8 1013.8 0.0
29/02:00am 27.0 28.1 18.8 60 5.3 W 11 13 6 7 1014.1 1014.1 0.0
29/01:30am 27.4 28.7 18.4 58 5.7 WNW 9 11 5 6 1014.2 1014.2 0.0
29/01:00am 27.8 28.9 18.8 58 5.8 WNW 11 11 6 6 1014.2 1014.2 0.0
29/12:30am 27.8 29.0 18.2 56 6.1 WNW 9 11 5 6 1014.4 1014.4 0.0
29/12:00am 27.7 28.5 18.1 56 6.1 NW 11 13 6 7 1014.5 1014.5 0.0
 
Date/Time
WST
Temp
°C
App
Temp
°C
Dew
Point
Rel
Hum
%
Delta-T
°C
Wind Press
QNH
hPa
Press
MSL
hPa
Rain
since 9 am
mm
Dir
 
Spd
km/h
Gust
km/h
Spd
kts
Gust
kts
28/11:30pm 27.2 30.0 17.9 56 5.9 CALM 0 0 0 0 1014.7 1014.7 0.0
28/11:00pm 27.7 29.5 18.4 57 5.9 WNW 6 7 3 4 1015.0 1015.0 0.0
28/10:30pm 27.6 28.2 18.6 58 5.8 NW 13 17 7 9 1015.1 1015.1 0.0
28/10:00pm 28.0 27.9 18.7 57 6.0 WNW 17 22 9 12 1015.2 1015.2 0.0
28/09:30pm 27.9 28.8 18.3 56 6.1 NW 11 15 6 8 1014.9 1014.9 0.0
28/09:00pm 27.9 29.4 17.7 53 6.4 WSW 6 11 3 6 1014.7 1014.7 0.0
28/08:30pm 28.1 29.5 17.9 54 6.5 NNE 7 15 4 8 1014.5 1014.5 0.0
28/08:00pm 28.4 30.2 18.2 54 6.5 NNE 6 9 3 5 1014.2 1014.2 0.0
28/07:30pm 28.6 30.6 17.8 52 6.9 ESE 4 9 2 5 1013.8 1013.8 0.0
28/07:00pm 29.1 27.9 17.6 50 7.3 N 20 28 11 15 1013.3 1013.3 0.0
28/06:30pm 29.1 27.1 17.3 49 7.4 N 24 35 13 19 1012.8 1012.8 0.0
28/06:00pm 28.8 27.2 18.3 53 6.7 N 24 35 13 19 1012.3 1012.3 0.0
28/05:30pm 29.4 27.0 18.2 51 7.2 NNE 28 37 15 20 1011.8 1011.8 0.0
28/05:00pm 30.7 28.6 16.3 42 9.0 N 22 32 12 17 1011.7 1011.7 0.0
28/04:30pm 33.0 30.6 16.4 37 10.5 N 24 33 13 18 1011.0 1011.0 0.0
28/04:00pm 34.2 32.8 16.5 34 11.2 N 19 26 10 14 1010.7 1010.7 0.0
28/03:30pm 34.2 33.0 16.1 34 11.4 N 17 24 9 13 1010.7 1010.7 0.0
28/03:00pm 34.8 34.2 15.7 32 12.0 N 13 19 7 10 1010.8 1010.8 0.0
28/02:30pm 35.1 34.6 15.9 31 12.1 NW 13 19 7 10 1011.0 1011.0 0.0
28/02:00pm 34.6 34.1 16.0 33 11.7 WNW 13 24 7 13 1011.4 1011.4 0.0
28/01:30pm 34.8 33.8 16.6 33 11.6 NNW 17 30 9 16 1011.7 1011.7 0.0
28/01:00pm 33.7 34.2 17.4 37 10.5 WNW 11 19 6 10 1012.3 1012.3 0.0
28/12:30pm 32.7 34.1 17.7 40 9.6 SW 7 15 4 8 1013.0 1013.0 0.0
28/12:00pm 33.1 34.2 18.1 41 9.7 NNW 9 15 5 8 1013.4 1013.4 0.0
28/11:30am 32.4 33.3 17.5 41 9.5 NNW 9 17 5 9 1014.0 1014.0 0.0
28/11:00am 32.7 33.6 18.5 43 9.2 N 11 15 6 8 1014.7 1014.7 0.0
28/10:30am 32.2 34.0 18.4 44 8.9 NNW 6 9 3 5 1015.4 1015.4 0.0
28/10:00am 30.9 31.9 18.6 48 7.9 NNE 11 17 6 9 1015.9 1015.9 0.0
28/09:30am 30.4 32.2 18.2 48 7.8 S 6 15 3 8 1016.2 1016.2 0.0
28/09:00am 30.5 31.5 18.6 49 7.7 ESE 11 17 6 9 1016.5 1016.5 0.0
28/08:30am 30.1 31.4 19.2 52 7.1 ESE 11 15 6 8 1016.6 1016.6 0.0
28/08:00am 29.5 30.4 19.2 54 6.7 ESE 13 17 7 9 1016.5 1016.5 0.0
28/07:30am 28.3 30.5 19.5 59 5.7 ESE 7 11 4 6 1016.3 1016.3 0.0
28/07:00am 26.1 28.0 19.7 68 4.1 E 9 11 5 6 1016.0 1016.0 0.0
28/06:30am 23.8 25.0 19.1 75 3.0 ESE 11 13 6 7 1015.6 1015.6 0.0
28/06:00am 23.4 24.2 19.1 77 2.7 ESE 13 17 7 9 1015.2 1015.2 0.0
28/05:30am 23.5 23.5 19.0 76 2.9 ESE 17 19 9 10 1015.0 1015.0 0.0
28/05:00am 22.1 21.9 16.8 72 3.2 E 13 19 7 10 1014.4 1014.4 0.0
28/04:30am 23.6 26.3 17.8 70 3.6 CALM 0 0 0 0 1013.7 1013.7 0.0
28/04:00am 24.0 25.4 17.7 68 3.9 NNW 7 9 4 5 1013.4 1013.4 0.0
28/03:30am 24.2 25.0 18.2 69 3.8 NW 11 13 6 7 1013.2 1013.2 0.0
28/03:00am 23.7 26.6 18.1 71 3.5 CALM 0 6 0 3 1013.3 1013.3 0.0
28/02:30am 23.4 26.3 18.3 73 3.2 CALM 0 0 0 0 1013.3 1013.3 0.0
28/02:00am 23.4 26.4 18.5 74 3.1 CALM 0 0 0 0 1013.2 1013.2 0.0
28/01:30am 23.2 25.4 16.5 66 4.1 CALM 0 0 0 0 1013.3 1013.3 0.0
28/01:00am 23.4 26.3 18.3 73 3.2 CALM 0 0 0 0 1013.4 1013.4 0.0
28/12:30am 23.2 24.5 17.6 71 3.5 E 7 9 4 5 1013.8 1013.8 0.0
28/12:00am 24.2 24.9 17.9 68 3.9 ESE 11 15 6 8 1014.1 1014.1 0.0
 
Date/Time
WST
Temp
°C
App
Temp
°C
Dew
Point
Rel
Hum
%
Delta-T
°C
Wind Press
QNH
hPa
Press
MSL
hPa
Rain
since 9 am
mm
Dir
 
Spd
km/h
Gust
km/h
Spd
kts
Gust
kts
27/11:30pm 26.2 29.3 18.6 63 4.8 CALM 0 0 0 0 1014.3 1014.3 0.0
27/11:00pm 25.5 28.2 17.7 62 4.9 CALM 0 0 0 0 1014.6 1014.6 0.0
27/10:30pm 26.4 28.5 18.0 60 5.3 NW 4 9 2 5 1014.6 1014.6 0.0
27/10:00pm 27.1 28.1 18.7 60 5.4 NNW 11 15 6 8 1014.5 1014.5 0.0
27/09:30pm 27.5 27.5 18.2 57 5.9 NW 15 17 8 9 1014.7 1014.7 0.0
27/09:00pm 27.5 29.5 17.9 55 6.1 W 4 9 2 5 1014.5 1014.5 0.0
27/08:30pm 27.8 29.8 17.9 54 6.3 SE 4 9 2 5 1014.3 1014.3 0.0
27/08:00pm 28.3 30.1 18.4 55 6.3 WSW 6 11 3 6 1014.2 1014.2 0.0
27/07:30pm 28.1 29.0 18.5 56 6.1 WNW 11 19 6 10 1014.0 1014.0 0.0
27/07:00pm 28.2 25.6 18.6 56 6.2 N 30 41 16 22 1013.1 1013.1 0.0
27/06:30pm 28.3 25.5 18.1 54 6.5 N 30 43 16 23 1012.6 1012.6 0.0
27/06:00pm 28.8 25.0 18.0 52 6.9 N 35 44 19 24 1012.1 1012.1 0.0
27/05:30pm 29.4 26.1 17.9 50 7.3 N 32 43 17 23 1011.8 1011.8 0.0
27/05:00pm 30.3 27.2 17.4 46 8.2 N 30 41 16 22 1011.5 1011.5 0.0
27/04:30pm 31.9 28.8 16.6 39 9.6 N 28 33 15 18 1011.4 1011.4 0.0
27/04:00pm 33.6 30.9 16.5 36 10.8 N 26 37 14 20 1011.1 1011.1 0.0
27/03:30pm 35.3 33.7 16.6 33 11.9 NNW 20 30 11 16 1010.9 1010.9 0.0
27/03:00pm 35.3 34.1 16.1 32 12.2 N 17 26 9 14 1010.9 1010.9 0.0
27/02:30pm 35.4 34.3 15.2 30 12.6 NE 15 24 8 13 1010.9 1010.9 0.0
27/02:00pm 35.2 35.3 15.5 30 12.4 NNE 9 15 5 8 1011.2 1011.2 0.0
27/01:30pm 35.8 35.3 16.0 30 12.5 NNW 13 24 7 13 1011.6 1011.6 0.0
27/01:00pm 35.8 34.4 15.5 29 12.8 NW 17 50 9 27 1012.0 1012.0 0.0
27/12:59pm 35.7 34.2 15.4 29 12.7 NW 17 50 9 27 1012.0 1012.0 0.0
27/12:30pm 34.5 33.8 15.4 32 11.9 WSW 13 22 7 12 1012.4 1012.4 0.0
27/12:00pm 33.9 33.2 16.3 35 11.1 W 15 22 8 12 1012.9 1012.9 0.0
27/11:30am 32.7 33.4 16.1 37 10.4 NE 7 11 4 6 1013.5 1013.5 0.0
27/11:00am 33.3 33.7 16.2 36 10.8 SW 9 13 5 7 1013.9 1013.9 0.0
27/10:30am 32.6 33.0 16.4 37 10.2 SSW 9 15 5 8 1014.4 1014.4 0.0
27/10:00am 31.8 32.9 16.5 39 9.6 WSW 6 9 3 5 1014.9 1014.9 0.0
27/09:30am 30.7 31.4 17.0 43 8.7 SSW 9 13 5 7 1015.4 1015.4 0.0
27/09:00am 30.7 31.8 18.1 47 8.1 ESE 9 15 5 8 1015.7 1015.7 0.0
27/08:30am 29.6 31.5 19.0 53 6.9 SSE 7 11 4 6 1015.7 1015.7 0.0
27/08:00am 27.5 28.4 19.3 61 5.3 ESE 13 17 7 9 1015.6 1015.6 0.0
27/07:30am 25.9 26.2 19.5 68 4.1 E 17 20 9 11 1015.3 1015.3 0.0
27/07:00am 24.7 25.0 19.5 73 3.3 E 17 22 9 12 1014.9 1014.9 0.0
27/06:30am 23.1 23.9 19.1 78 2.5 E 13 17 7 9 1014.7 1014.7 0.0
27/06:00am 22.2 23.2 18.6 80 2.3 E 11 13 6 7 1014.2 1014.2 0.0
27/05:30am 22.0 23.2 18.2 79 2.4 E 9 9 5 5 1013.8 1013.8 0.0
27/05:00am 22.1 22.8 17.9 77 2.6 E 11 13 6 7 1013.5 1013.5 0.0
27/04:30am 22.2 23.4 16.9 72 3.2 ESE 6 11 3 6 1013.2 1013.2 0.0
27/04:00am 23.1 23.4 15.9 64 4.3 NW 9 11 5 6 1013.0 1013.0 0.0
27/03:30am 23.8 25.1 17.5 68 3.9 NNW 7 9 4 5 1012.8 1012.8 0.0
27/03:00am 23.6 24.5 17.6 69 3.7 NNW 9 11 5 6 1012.8 1012.8 0.0
27/02:30am 24.0 27.0 18.4 71 3.5 CALM 0 0 0 0 1012.7 1012.7 0.0
27/02:00am 23.4 25.6 17.4 69 3.7 W 2 7 1 4 1012.8 1012.8 0.0
27/01:30am 24.0 26.8 18.0 69 3.8 CALM 0 0 0 0 1012.9 1012.9 0.0
27/01:00am 24.0 26.3 16.8 64 4.4 CALM 0 0 0 0 1013.1 1013.1 0.0
27/12:30am 24.8 27.4 17.5 64 4.6 CALM 0 0 0 0 1013.3 1013.3 0.0
27/12:00am 24.7 25.5 15.9 58 5.3 WSW 6 7 3 4 1013.4 1013.4 0.0
 
Date/Time
WST
Temp
°C
App
Temp
°C
Dew
Point
Rel
Hum
%
Delta-T
°C
Wind Press
QNH
hPa
Press
MSL
hPa
Rain
since 9 am
mm
Dir
 
Spd
km/h
Gust
km/h
Spd
kts
Gust
kts
26/11:30pm 25.5 26.4 16.6 58 5.5 WSW 7 9 4 5 1013.6 1013.6 0.0
26/11:00pm 25.9 27.3 17.3 59 5.4 W 6 7 3 4 1013.8 1013.8 0.0
26/10:30pm 26.8 27.4 17.8 57 5.7 NW 11 13 6 7 1013.8 1013.8 0.0
26/10:00pm 27.6 28.6 17.7 54 6.3 WSW 9 11 5 6 1013.8 1013.8 0.0
26/09:30pm 27.3 28.6 17.2 54 6.3 N 6 11 3 6 1013.7 1013.7 0.0
26/09:00pm 27.9 29.1 18.3 56 6.1 NW 9 13 5 7 1013.6 1013.6 0.0
26/08:30pm 28.0 29.5 18.1 55 6.3 WNW 7 11 4 6 1013.5 1013.5 0.0
26/08:00pm 27.8 29.7 17.6 53 6.4 SW 4 7 2 4 1013.4 1013.4 0.0
26/07:30pm 28.7 28.7 18.2 53 6.7 N 15 22 8 12 1013.3 1013.3 0.0
26/07:00pm 28.9 28.1 18.4 53 6.7 N 20 28 11 15 1013.0 1013.0 0.0
26/06:30pm 29.7 28.8 17.8 48 7.6 NNE 19 26 10 14 1012.7 1012.7 0.0
26/06:00pm 29.9 29.0 18.3 49 7.4 N 20 30 11 16 1012.5 1012.5 0.0
26/05:30pm 30.7 29.8 18.1 47 8.1 N 20 28 11 15 1012.1 1012.1 0.0

Other Formats:

Comma delimited format used in spreadsheet applications
http://www.bom.gov.au/fwo/IDW60801/IDW60801.95214.axf

JavaScript Object Notation format (JSON) in row-major order
http://www.bom.gov.au/fwo/IDW60801/IDW60801.95214.json